Aviation Digital Data Service (ADDS)

Output produced by METARs form (0915 UTC 19 November 2018)
found at http://www.aviationweather.gov/metar/data/
 
KEAU 190520Z 1906/2006 21006KT P6SM BKN100 
     FM190800 19005KT P6SM VCSH SCT030 OVC060 
     FM190900 VRB04KT 5SM -SHSN OVC030 
     TEMPO 1910/1914 2SM -SN OVC025 
     FM191500 36008KT P6SM BKN020 
     FM192100 35008KT P6SM BKN035 
     FM200100 35005KT P6SM SCT025
       
KRNH 190852Z 1909/2006 VRB03KT 4SM -SHSN OVC030 
     TEMPO 1909/1912 1 1/2SM -SN BKN015 
     FM191400 36007KT P6SM BKN020 
     FM192100 35009KT P6SM BKN035 
     FM200100 35005KT P6SM SCT040
       
KMSP 190841Z 1909/2012 VRB03KT P6SM VCSH OVC090 
     FM191200 35006KT P6SM SCT020 OVC070 
     FM191700 35010G16KT P6SM OVC020 
     FM192100 35010KT P6SM BKN035 
     FM200000 34009KT P6SM FEW030